createdAt,value
2018-07-25T00:00:34.294Z,6.90
2018-07-25T00:03:02.800Z,6.20
2018-07-25T00:05:31.409Z,6.80
2018-07-25T00:07:59.905Z,5.67
2018-07-25T00:10:33.905Z,6.30
2018-07-25T00:13:02.496Z,6.40
2018-07-25T00:15:30.975Z,5.47
2018-07-25T00:17:59.567Z,5.40
2018-07-25T00:20:28.089Z,4.83
2018-07-25T00:22:56.567Z,5.53
2018-07-25T00:25:25.079Z,5.40
2018-07-25T00:27:53.633Z,4.97
2018-07-25T00:30:22.191Z,4.90
2018-07-25T00:32:50.650Z,5.33
2018-07-25T00:35:18.969Z,4.77
2018-07-25T00:37:47.434Z,4.90
2018-07-25T00:40:15.624Z,5.13
2018-07-25T00:42:44.221Z,5.13
2018-07-25T00:45:12.780Z,4.90
2018-07-25T00:47:41.292Z,5.90
2018-07-25T00:50:10.118Z,5.17
2018-07-25T00:52:38.616Z,5.50
2018-07-25T00:55:07.084Z,5.37
2018-07-25T00:57:35.536Z,5.80
2018-07-25T01:00:04.149Z,6.07
2018-07-25T01:02:32.600Z,5.97
2018-07-25T01:05:00.800Z,5.90
2018-07-25T01:07:29.640Z,6.33
2018-07-25T01:09:58.178Z,6.60
2018-07-25T01:12:26.703Z,7.10
2018-07-25T01:14:55.216Z,7.17
2018-07-25T01:17:23.747Z,7.87
2018-07-25T01:19:52.599Z,8.00
2018-07-25T01:22:21.415Z,7.90
2018-07-25T01:24:49.915Z,7.67
2018-07-25T01:27:18.397Z,6.60
2018-07-25T01:29:46.983Z,7.13
2018-07-25T01:32:15.457Z,7.23
2018-07-25T01:34:44.580Z,6.30
2018-07-25T01:37:13.161Z,7.10
2018-07-25T01:39:41.637Z,5.73
2018-07-25T01:42:10.237Z,6.33
2018-07-25T01:44:38.713Z,6.90
2018-07-25T01:47:07.189Z,6.17
2018-07-25T01:49:35.717Z,6.37
2018-07-25T01:52:04.359Z,5.73
2018-07-25T01:54:32.963Z,6.53
2018-07-25T01:57:01.551Z,6.67
2018-07-25T01:59:30.919Z,6.53
2018-07-25T02:02:00.657Z,6.13
2018-07-25T02:04:29.402Z,6.60
2018-07-25T02:06:57.923Z,7.30
2018-07-25T02:09:26.500Z,7.93
2018-07-25T02:11:54.982Z,8.67
2018-07-25T02:14:23.228Z,7.10
2018-07-25T02:16:51.710Z,8.20
2018-07-25T02:19:20.198Z,6.80
2018-07-25T02:21:48.766Z,7.63
2018-07-25T02:24:17.278Z,8.50
2018-07-25T02:26:45.780Z,7.97
2018-07-25T02:29:14.272Z,6.83
2018-07-25T02:31:42.733Z,7.33
2018-07-25T02:34:16.616Z,6.63
2018-07-25T02:36:45.106Z,7.20
2018-07-25T02:39:14.532Z,7.13
2018-07-25T02:41:44.220Z,7.17
2018-07-25T02:44:13.016Z,8.30
2018-07-25T02:46:41.494Z,6.70
2018-07-25T02:49:10.282Z,6.60
2018-07-25T02:51:38.736Z,7.23
2018-07-25T02:54:07.612Z,7.70
2018-07-25T02:56:36.160Z,6.60
2018-07-25T02:59:05.153Z,7.17
2018-07-25T03:01:34.219Z,7.27
2018-07-25T03:04:02.837Z,7.67
2018-07-25T03:06:31.310Z,7.17
2018-07-25T03:08:59.999Z,7.90
2018-07-25T03:11:28.608Z,6.97
2018-07-25T03:13:57.122Z,7.97
2018-07-25T03:16:25.647Z,7.70
2018-07-25T03:18:53.800Z,7.17
2018-07-25T03:21:22.252Z,8.10
2018-07-25T03:23:50.727Z,7.03
2018-07-25T03:26:19.221Z,8.97
2018-07-25T03:28:47.871Z,7.50
2018-07-25T03:31:16.489Z,8.90
2018-07-25T03:33:44.945Z,7.37
2018-07-25T03:36:13.565Z,8.17
2018-07-25T03:38:42.150Z,7.47
2018-07-25T03:41:10.633Z,7.97
2018-07-25T03:43:39.120Z,7.57
2018-07-25T03:46:07.646Z,7.40
2018-07-25T03:48:36.327Z,7.40
2018-07-25T03:51:04.859Z,7.83
2018-07-25T03:53:33.368Z,8.37
2018-07-25T03:56:01.894Z,8.57
2018-07-25T03:58:30.406Z,7.77
2018-07-25T04:00:59.020Z,6.33
2018-07-25T04:03:27.498Z,7.17
2018-07-25T04:05:56.078Z,8.63
2018-07-25T04:08:24.679Z,8.40
2018-07-25T04:10:53.209Z,7.70
2018-07-25T04:13:21.772Z,7.93
2018-07-25T04:15:50.252Z,7.63
2018-07-25T04:18:18.995Z,7.03
2018-07-25T04:20:47.515Z,7.23
2018-07-25T04:23:16.035Z,6.90
2018-07-25T04:25:45.183Z,7.10
2018-07-25T04:28:16.995Z,7.27
2018-07-25T04:30:47.704Z,8.20
2018-07-25T04:33:16.202Z,8.17
2018-07-25T04:35:44.690Z,6.70
2018-07-25T04:38:13.276Z,7.90
2018-07-25T04:40:41.885Z,6.77
2018-07-25T04:43:10.716Z,8.00
2018-07-25T04:45:39.345Z,8.07
2018-07-25T04:48:07.916Z,7.63
2018-07-25T04:50:36.572Z,8.00
2018-07-25T04:53:05.342Z,8.30
2018-07-25T04:55:33.916Z,7.60
2018-07-25T04:58:02.452Z,7.13
2018-07-25T05:00:31.024Z,7.40
2018-07-25T05:02:59.611Z,7.67
2018-07-25T05:05:28.175Z,8.23
2018-07-25T05:07:56.698Z,7.90
2018-07-25T05:10:25.258Z,8.10
2018-07-25T05:12:53.998Z,8.80
2018-07-25T05:15:22.492Z,8.23
2018-07-25T05:17:51.040Z,8.07
2018-07-25T05:20:19.687Z,7.80
2018-07-25T05:22:48.279Z,8.50
2018-07-25T05:25:16.853Z,8.23
2018-07-25T05:27:45.493Z,7.67
2018-07-25T05:30:14.046Z,7.43
2018-07-25T05:32:42.613Z,7.60
2018-07-25T05:35:11.289Z,6.90
2018-07-25T05:37:40.004Z,8.20
2018-07-25T05:40:08.565Z,7.93
2018-07-25T05:42:37.135Z,7.73
2018-07-25T05:45:06.018Z,8.67
2018-07-25T05:47:34.526Z,9.10
2018-07-25T05:50:03.219Z,9.10
2018-07-25T05:52:31.773Z,6.90
2018-07-25T05:55:00.482Z,7.73
2018-07-25T05:57:29.114Z,7.60
2018-07-25T05:59:57.659Z,7.90
2018-07-25T06:02:26.239Z,8.50
2018-07-25T06:04:54.760Z,9.07
2018-07-25T06:07:23.312Z,8.73
2018-07-25T06:09:51.931Z,8.00
2018-07-25T06:12:20.484Z,7.70
2018-07-25T06:14:49.091Z,7.90
2018-07-25T06:17:17.641Z,7.53
2018-07-25T06:19:46.251Z,7.83
2018-07-25T06:22:14.827Z,7.60
2018-07-25T06:24:43.516Z,8.43
2018-07-25T06:27:12.058Z,8.40
2018-07-25T06:29:40.666Z,8.23
2018-07-25T06:32:09.745Z,8.13
2018-07-25T06:34:38.304Z,7.17
2018-07-25T06:37:06.879Z,7.50
2018-07-25T06:39:35.479Z,7.00
2018-07-25T06:42:04.061Z,7.77
2018-07-25T06:44:32.602Z,7.63
2018-07-25T06:47:01.237Z,7.00
2018-07-25T06:49:29.792Z,6.93
2018-07-25T06:51:58.415Z,7.27
2018-07-25T06:54:26.961Z,7.63
2018-07-25T06:56:55.538Z,7.70
2018-07-25T06:59:24.193Z,8.00
2018-07-25T07:01:52.771Z,7.67
2018-07-25T07:04:21.337Z,7.93
2018-07-25T07:06:49.948Z,8.03
2018-07-25T07:09:18.466Z,9.33
2018-07-25T07:11:47.033Z,7.70
2018-07-25T07:14:15.565Z,9.17
2018-07-25T07:16:44.148Z,9.10
2018-07-25T07:19:12.776Z,8.87
2018-07-25T07:21:41.516Z,8.73
2018-07-25T07:24:10.265Z,8.73
2018-07-25T07:26:38.859Z,9.13
2018-07-25T07:29:07.442Z,7.33
2018-07-25T07:31:36.006Z,8.93
2018-07-25T07:34:04.617Z,9.70
2018-07-25T07:36:33.268Z,8.93
2018-07-25T07:39:01.820Z,8.47
2018-07-25T07:41:30.417Z,7.60
2018-07-25T07:43:58.928Z,9.00
2018-07-25T07:46:27.629Z,9.80
2018-07-25T07:48:56.313Z,7.87
2018-07-25T07:51:24.841Z,8.33
2018-07-25T07:53:53.578Z,8.63
2018-07-25T07:56:22.207Z,7.50
2018-07-25T07:58:50.824Z,7.90
2018-07-25T08:01:19.390Z,8.10
2018-07-25T08:03:47.910Z,8.50
2018-07-25T08:06:16.508Z,8.47
2018-07-25T08:08:45.091Z,7.80
2018-07-25T08:11:17.902Z,8.40
2018-07-25T08:13:46.866Z,8.17
2018-07-25T08:16:15.774Z,8.40
2018-07-25T08:18:44.382Z,7.63
2018-07-25T08:21:13.504Z,8.57
2018-07-25T08:23:43.068Z,8.30
2018-07-25T08:26:11.698Z,8.50
2018-07-25T08:28:40.408Z,7.10
2018-07-25T08:31:09.127Z,7.57
2018-07-25T08:33:37.700Z,6.83
2018-07-25T08:36:06.263Z,7.80
2018-07-25T08:38:38.615Z,6.20
2018-07-25T08:41:07.538Z,7.17
2018-07-25T08:43:37.709Z,7.80
2018-07-25T08:46:07.490Z,6.53
2018-07-25T08:48:36.126Z,6.63
2018-07-25T08:51:04.773Z,6.13
2018-07-25T08:53:33.998Z,5.80
2018-07-25T08:56:02.577Z,6.10
2018-07-25T08:58:31.233Z,6.73
2018-07-25T09:01:00.206Z,6.40
2018-07-25T09:03:28.943Z,6.00
2018-07-25T09:05:57.510Z,6.27
2018-07-25T09:08:26.092Z,5.83
2018-07-25T09:10:54.685Z,5.97
2018-07-25T09:13:23.401Z,6.70
2018-07-25T09:15:51.992Z,6.23
2018-07-25T09:18:20.681Z,6.97
2018-07-25T09:20:49.241Z,6.07
2018-07-25T09:23:17.484Z,6.20
2018-07-25T09:25:45.991Z,8.63
2018-07-25T09:28:14.557Z,7.27
2018-07-25T09:30:43.122Z,6.80
2018-07-25T09:33:11.768Z,6.80
2018-07-25T09:35:40.318Z,7.90
2018-07-25T09:38:08.887Z,7.43
2018-07-25T09:40:37.460Z,6.40
2018-07-25T09:43:06.149Z,7.80
2018-07-25T09:45:34.740Z,7.20
2018-07-25T09:48:03.462Z,7.80
2018-07-25T09:50:32.063Z,6.90
2018-07-25T09:53:00.675Z,7.70
2018-07-25T09:55:28.975Z,7.10
2018-07-25T09:57:57.533Z,7.93
2018-07-25T10:00:31.444Z,8.90
2018-07-25T10:03:00.154Z,7.17
2018-07-25T10:05:28.805Z,7.60
2018-07-25T10:07:57.418Z,8.70
2018-07-25T10:10:26.040Z,7.90
2018-07-25T10:12:54.597Z,7.37
2018-07-25T10:15:23.180Z,8.20
2018-07-25T10:17:51.435Z,7.10
2018-07-25T10:20:19.995Z,8.13
2018-07-25T10:22:48.605Z,6.60
2018-07-25T10:25:17.147Z,8.33
2018-07-25T10:27:45.668Z,7.50
2018-07-25T10:30:14.227Z,6.17
2018-07-25T10:32:42.764Z,8.47
2018-07-25T10:35:11.366Z,8.53
2018-07-25T10:37:39.964Z,7.30
2018-07-25T10:40:08.839Z,7.57
2018-07-25T10:42:37.519Z,6.93
2018-07-25T10:45:07.580Z,7.80
2018-07-25T10:47:36.115Z,6.97
2018-07-25T10:50:05.536Z,7.30
2018-07-25T10:52:34.175Z,7.10
2018-07-25T10:55:02.773Z,7.63
2018-07-25T10:57:31.607Z,7.40
2018-07-25T11:00:00.235Z,7.47
2018-07-25T11:02:28.883Z,7.17
2018-07-25T11:04:57.445Z,7.27
2018-07-25T11:07:25.996Z,7.37
2018-07-25T11:09:54.584Z,7.30
2018-07-25T11:12:23.180Z,7.87
2018-07-25T11:14:51.748Z,7.37
2018-07-25T11:17:20.350Z,6.43
2018-07-25T11:19:48.887Z,5.87
2018-07-25T11:22:18.372Z,5.97
2018-07-25T11:24:46.967Z,5.70
2018-07-25T11:27:15.590Z,5.43
2018-07-25T11:29:44.132Z,5.27
2018-07-25T11:32:12.613Z,5.20
2018-07-25T11:34:41.244Z,5.47
2018-07-25T11:37:10.014Z,6.30
2018-07-25T11:39:38.540Z,5.57
2018-07-25T11:42:07.182Z,5.77
2018-07-25T11:44:35.765Z,5.40
2018-07-25T11:47:04.341Z,5.53
2018-07-25T11:49:32.932Z,5.60
2018-07-25T11:52:01.667Z,5.97
2018-07-25T11:54:30.192Z,6.30
2018-07-25T11:56:58.778Z,5.40
2018-07-25T11:59:27.346Z,6.07
2018-07-25T12:01:55.943Z,5.90
2018-07-25T12:04:24.524Z,6.53
2018-07-25T12:06:53.104Z,6.03
2018-07-25T12:09:21.666Z,6.27
2018-07-25T12:11:50.323Z,5.80
2018-07-25T12:14:19.380Z,6.60
2018-07-25T12:16:48.020Z,6.60
2018-07-25T12:19:16.650Z,6.37
2018-07-25T12:21:45.238Z,7.03
2018-07-25T12:24:13.854Z,5.57
2018-07-25T12:26:42.467Z,6.70
2018-07-25T12:29:10.713Z,6.60
2018-07-25T12:31:39.282Z,5.80
2018-07-25T12:34:07.860Z,5.73
2018-07-25T12:36:36.457Z,6.93
2018-07-25T12:39:08.091Z,6.30
2018-07-25T12:41:36.754Z,6.90
2018-07-25T12:44:05.521Z,6.63
2018-07-25T12:46:34.131Z,5.97
2018-07-25T12:49:02.823Z,7.13
2018-07-25T12:51:31.401Z,6.23
2018-07-25T12:54:00.174Z,6.70
2018-07-25T12:56:28.731Z,7.13
2018-07-25T12:58:57.313Z,6.27
2018-07-25T13:01:25.921Z,6.77
2018-07-25T13:03:54.548Z,6.90
2018-07-25T13:06:23.174Z,6.03
2018-07-25T13:08:51.799Z,6.27
2018-07-25T13:11:20.470Z,5.70
2018-07-25T13:13:49.121Z,6.10
2018-07-25T13:16:17.481Z,6.40
2018-07-25T13:18:46.110Z,6.07
2018-07-25T13:21:14.664Z,7.40
2018-07-25T13:23:43.304Z,7.40
2018-07-25T13:26:11.907Z,6.60
2018-07-25T13:28:41.271Z,3.90
2018-07-25T13:31:09.920Z,3.93
2018-07-25T13:33:38.508Z,2.83
2018-07-25T13:36:07.116Z,3.47
2018-07-25T13:38:35.692Z,4.20
2018-07-25T13:41:04.323Z,3.93
2018-07-25T13:43:32.899Z,5.70
2018-07-25T13:46:01.793Z,5.23
2018-07-25T13:48:30.395Z,7.00
2018-07-25T13:50:59.084Z,11.30
2018-07-25T13:53:27.788Z,6.80
2018-07-25T13:55:56.433Z,8.67
2018-07-25T13:58:25.059Z,8.00
2018-07-25T14:00:53.690Z,5.87
2018-07-25T14:03:22.272Z,7.80
2018-07-25T14:05:50.947Z,6.57
2018-07-25T14:08:19.545Z,5.50
2018-07-25T14:10:48.100Z,5.90
2018-07-25T14:13:16.819Z,6.30
2018-07-25T14:15:45.483Z,6.10
2018-07-25T14:18:14.998Z,5.03
2018-07-25T14:20:43.655Z,5.43
2018-07-25T14:23:12.311Z,5.63
2018-07-25T14:25:40.973Z,6.03
2018-07-25T14:28:09.642Z,6.10
2018-07-25T14:30:38.322Z,6.00
2018-07-25T14:33:07.013Z,6.57
2018-07-25T14:35:35.648Z,6.30
2018-07-25T14:38:04.294Z,7.23
2018-07-25T14:40:32.985Z,7.27
2018-07-25T14:43:01.568Z,6.67
2018-07-25T14:45:30.178Z,8.10
2018-07-25T14:47:58.835Z,7.07
2018-07-25T14:50:27.367Z,7.87
2018-07-25T14:52:55.945Z,9.03
2018-07-25T14:55:24.562Z,7.77
2018-07-25T14:57:53.382Z,8.50
2018-07-25T15:00:22.292Z,8.77
2018-07-25T15:02:51.188Z,8.30
2018-07-25T15:05:19.774Z,8.70
2018-07-25T15:07:48.484Z,7.90
2018-07-25T15:10:17.168Z,6.70
2018-07-25T15:13:00.362Z,8.07
2018-07-25T15:15:29.065Z,8.67
2018-07-25T15:17:57.687Z,8.80
2018-07-25T15:20:26.327Z,9.53
2018-07-25T15:22:54.913Z,7.00
2018-07-25T15:25:23.507Z,9.17
2018-07-25T15:27:52.433Z,8.50
2018-07-25T15:30:21.096Z,8.00
2018-07-25T15:32:49.719Z,7.23
2018-07-25T15:35:18.291Z,6.60
2018-07-25T15:37:46.971Z,6.73
2018-07-25T15:40:15.567Z,7.13
2018-07-25T15:42:44.217Z,6.57
2018-07-25T15:45:12.823Z,6.47
2018-07-25T15:47:41.451Z,7.10
2018-07-25T15:50:10.055Z,9.37
2018-07-25T15:52:38.655Z,7.90
2018-07-25T15:55:07.341Z,7.60
2018-07-25T15:57:36.023Z,7.17
2018-07-25T16:00:05.981Z,7.80
2018-07-25T16:02:34.929Z,7.23
2018-07-25T16:05:03.619Z,7.37
2018-07-25T16:07:32.222Z,9.40
2018-07-25T16:10:00.869Z,6.20
2018-07-25T16:12:29.429Z,6.87
2018-07-25T16:14:58.047Z,6.87
2018-07-25T16:17:26.694Z,7.33
2018-07-25T16:19:55.321Z,6.70
2018-07-25T16:22:23.931Z,6.37
2018-07-25T16:24:52.513Z,6.33
2018-07-25T16:27:21.116Z,6.50
2018-07-25T16:29:49.738Z,6.90
2018-07-25T16:32:18.308Z,4.90
2018-07-25T16:34:46.892Z,6.80
2018-07-25T16:37:15.841Z,7.33
2018-07-25T16:39:44.437Z,6.83
2018-07-25T16:42:13.041Z,6.70
2018-07-25T16:44:41.573Z,6.87
2018-07-25T16:47:10.466Z,7.00
2018-07-25T16:49:39.185Z,6.60
2018-07-25T16:52:07.832Z,6.83
2018-07-25T16:54:36.498Z,5.83
2018-07-25T16:57:05.407Z,6.83
2018-07-25T16:59:34.075Z,6.33
2018-07-25T17:02:02.829Z,6.30
2018-07-25T17:04:31.425Z,5.90
2018-07-25T17:07:00.047Z,6.50
2018-07-25T17:09:28.629Z,5.03
2018-07-25T17:11:57.236Z,6.70
2018-07-25T17:14:25.913Z,6.20
2018-07-25T17:16:54.493Z,6.10
2018-07-25T17:19:23.100Z,7.33
2018-07-25T17:21:51.797Z,7.67
2018-07-25T17:24:20.444Z,6.97
2018-07-25T17:26:49.095Z,8.23
2018-07-25T17:29:17.730Z,8.33
2018-07-25T17:31:46.363Z,8.90
2018-07-25T17:34:14.976Z,7.63
2018-07-25T17:36:43.628Z,7.10
2018-07-25T17:39:12.633Z,8.53
2018-07-25T17:41:41.935Z,8.63
2018-07-25T17:44:10.554Z,7.27
2018-07-25T17:46:39.444Z,6.90
2018-07-25T17:49:08.134Z,8.23
2018-07-25T17:51:36.718Z,8.57
2018-07-25T17:54:05.338Z,7.13
2018-07-25T17:56:34.053Z,7.53
2018-07-25T17:59:02.305Z,7.67
2018-07-25T18:01:30.989Z,6.80
2018-07-25T18:03:59.689Z,7.43
2018-07-25T18:06:28.442Z,7.60
2018-07-25T18:08:57.129Z,7.90
2018-07-25T18:11:25.717Z,8.60
2018-07-25T18:13:59.624Z,7.67
2018-07-25T18:16:28.298Z,7.03
2018-07-25T18:18:57.111Z,8.17
2018-07-25T18:21:25.922Z,7.77
2018-07-25T18:23:54.590Z,7.63
2018-07-25T18:26:23.227Z,8.57
2018-07-25T18:28:51.931Z,8.90
2018-07-25T18:31:20.593Z,8.83
2018-07-25T18:33:49.378Z,9.13
2018-07-25T18:36:18.007Z,7.40
2018-07-25T18:38:46.799Z,7.90
2018-07-25T18:41:15.540Z,7.27
2018-07-25T18:43:44.305Z,6.73
2018-07-25T18:46:13.074Z,6.83
2018-07-25T18:48:41.971Z,6.77
2018-07-25T18:51:10.698Z,6.03
2018-07-25T18:53:39.433Z,6.57
2018-07-25T18:56:08.422Z,5.50
2018-07-25T18:58:37.079Z,5.67
2018-07-25T19:01:05.852Z,5.17
2018-07-25T19:03:34.533Z,5.47
2018-07-25T19:06:03.254Z,5.50
2018-07-25T19:08:32.075Z,8.23
2018-07-25T19:11:00.935Z,8.53
2018-07-25T19:13:33.716Z,7.50
2018-07-25T19:16:03.149Z,7.63
2018-07-25T19:18:31.936Z,7.60
2018-07-25T19:21:00.791Z,6.33
2018-07-25T19:23:29.708Z,6.10
2018-07-25T19:25:58.438Z,7.13
2018-07-25T19:28:27.219Z,5.53
2018-07-25T19:30:56.028Z,6.10
2018-07-25T19:33:24.825Z,7.47
2018-07-25T19:35:53.720Z,7.07
2018-07-25T19:38:22.523Z,6.53
2018-07-25T19:40:51.303Z,6.50
2018-07-25T19:43:20.952Z,6.80
2018-07-25T19:45:50.370Z,6.97
2018-07-25T19:48:19.473Z,6.33
2018-07-25T19:50:48.411Z,6.67
2018-07-25T19:53:17.269Z,6.43
2018-07-25T19:55:46.105Z,7.07
2018-07-25T19:58:14.956Z,6.90
2018-07-25T20:00:43.898Z,6.43
2018-07-25T20:03:13.381Z,6.40
2018-07-25T20:05:42.140Z,5.37
2018-07-25T20:08:10.924Z,6.27
2018-07-25T20:10:39.757Z,6.37
2018-07-25T20:13:09.208Z,7.57
2018-07-25T20:15:43.810Z,7.20
2018-07-25T20:18:12.555Z,6.77
2018-07-25T20:20:41.375Z,6.00
2018-07-25T20:23:10.205Z,6.50
2018-07-25T20:25:38.957Z,7.10
2018-07-25T20:28:07.714Z,7.17
2018-07-25T20:30:37.425Z,6.73
2018-07-25T20:33:06.263Z,6.67
2018-07-25T20:35:35.126Z,5.97
2018-07-25T20:38:03.928Z,6.77
2018-07-25T20:40:32.659Z,6.70
2018-07-25T20:43:01.395Z,6.70
2018-07-25T20:45:30.141Z,7.40
2018-07-25T20:47:58.809Z,8.90
2018-07-25T20:50:27.531Z,8.50
2018-07-25T20:52:56.297Z,7.40
2018-07-25T20:55:27.097Z,8.23
2018-07-25T20:57:55.676Z,7.30
2018-07-25T21:00:29.601Z,6.90
2018-07-25T21:02:58.220Z,8.63
2018-07-25T21:05:26.788Z,7.10
2018-07-25T21:07:55.463Z,7.70
2018-07-25T21:10:24.154Z,6.17
2018-07-25T21:12:52.734Z,7.17
2018-07-25T21:15:21.316Z,7.23
2018-07-25T21:17:49.900Z,7.30
2018-07-25T21:20:18.479Z,6.27
2018-07-25T21:22:47.043Z,7.40
2018-07-25T21:25:15.548Z,6.97
2018-07-25T21:27:44.130Z,6.33
2018-07-25T21:30:12.731Z,6.80
2018-07-25T21:32:41.424Z,7.00
2018-07-25T21:35:10.166Z,6.33
2018-07-25T21:37:38.736Z,5.87
2018-07-25T21:40:07.351Z,6.67
2018-07-25T21:42:35.871Z,7.93
2018-07-25T21:45:04.514Z,6.00
2018-07-25T21:47:33.128Z,6.50
2018-07-25T21:50:01.778Z,6.40
2018-07-25T21:52:30.316Z,7.40
2018-07-25T21:54:58.885Z,7.30
2018-07-25T21:57:27.448Z,7.63
2018-07-25T21:59:55.950Z,8.83
2018-07-25T22:02:24.460Z,8.77
2018-07-25T22:04:52.998Z,9.53
2018-07-25T22:07:21.595Z,8.90
2018-07-25T22:09:50.127Z,7.90
2018-07-25T22:12:18.725Z,7.87
2018-07-25T22:14:47.271Z,6.87
2018-07-25T22:17:15.988Z,7.40
2018-07-25T22:19:44.523Z,8.40
2018-07-25T22:22:13.105Z,7.90
2018-07-25T22:24:41.656Z,8.07
2018-07-25T22:27:10.238Z,8.83
2018-07-25T22:29:38.776Z,8.13
2018-07-25T22:32:07.393Z,8.30
2018-07-25T22:34:35.916Z,7.67
2018-07-25T22:37:04.459Z,7.97
2018-07-25T22:39:33.059Z,7.13
2018-07-25T22:42:01.613Z,7.40
2018-07-25T22:44:30.121Z,7.93
2018-07-25T22:46:58.694Z,7.57
2018-07-25T22:49:27.217Z,8.30
2018-07-25T22:51:55.735Z,8.77
2018-07-25T22:54:24.264Z,7.73
2018-07-25T22:56:52.772Z,8.17
2018-07-25T22:59:21.344Z,7.50
2018-07-25T23:01:49.888Z,8.83
2018-07-25T23:04:18.361Z,7.90
2018-07-25T23:06:46.917Z,8.07
2018-07-25T23:09:15.449Z,8.70
2018-07-25T23:11:43.949Z,7.90
2018-07-25T23:14:12.497Z,7.87
2018-07-25T23:16:40.995Z,7.93
2018-07-25T23:19:09.557Z,8.17
2018-07-25T23:21:38.107Z,8.07
2018-07-25T23:24:06.657Z,7.27
2018-07-25T23:26:35.213Z,7.47
2018-07-25T23:29:03.765Z,6.73
2018-07-25T23:31:32.359Z,8.53
2018-07-25T23:34:00.871Z,7.13
2018-07-25T23:36:29.290Z,7.53
2018-07-25T23:38:57.845Z,8.83
2018-07-25T23:41:26.371Z,9.90
2018-07-25T23:43:54.941Z,8.47
2018-07-25T23:46:23.486Z,7.70
2018-07-25T23:48:52.002Z,8.90
2018-07-25T23:51:20.504Z,11.07
2018-07-25T23:53:49.048Z,8.63
2018-07-25T23:56:17.550Z,9.57
2018-07-25T23:58:46.165Z,8.43
